sensor_id;sensor_type;location;lat;lon;timestamp;P1;durP1;ratioP1;P2;durP2;ratioP2
39750;SDS011;37579;51.074;17.004;2022-08-19T00:01:22;10.70;;;7.90;;
39750;SDS011;37579;51.074;17.004;2022-08-19T00:03:48;10.35;;;8.10;;
39750;SDS011;37579;51.074;17.004;2022-08-19T00:06:14;10.68;;;8.23;;
39750;SDS011;37579;51.074;17.004;2022-08-19T00:08:40;10.68;;;7.90;;
39750;SDS011;37579;51.074;17.004;2022-08-19T00:11:06;10.32;;;7.72;;
39750;SDS011;37579;51.074;17.004;2022-08-19T00:13:32;9.80;;;7.68;;
39750;SDS011;37579;51.074;17.004;2022-08-19T00:15:58;9.95;;;7.75;;
39750;SDS011;37579;51.074;17.004;2022-08-19T00:18:25;9.02;;;8.13;;
39750;SDS011;37579;51.074;17.004;2022-08-19T00:20:51;9.43;;;7.40;;
39750;SDS011;37579;51.074;17.004;2022-08-19T00:23:18;10.00;;;8.15;;
39750;SDS011;37579;51.074;17.004;2022-08-19T00:25:44;10.27;;;7.50;;
39750;SDS011;37579;51.074;17.004;2022-08-19T00:28:10;11.43;;;8.25;;
39750;SDS011;37579;51.074;17.004;2022-08-19T00:30:35;11.38;;;8.60;;
39750;SDS011;37579;51.074;17.004;2022-08-19T00:33:01;13.75;;;7.68;;
39750;SDS011;37579;51.074;17.004;2022-08-19T00:35:28;9.70;;;7.53;;
39750;SDS011;37579;51.074;17.004;2022-08-19T00:37:54;12.07;;;8.50;;
39750;SDS011;37579;51.074;17.004;2022-08-19T00:40:20;8.40;;;6.95;;
39750;SDS011;37579;51.074;17.004;2022-08-19T00:42:46;9.93;;;7.47;;
39750;SDS011;37579;51.074;17.004;2022-08-19T00:45:16;9.23;;;7.32;;
39750;SDS011;37579;51.074;17.004;2022-08-19T00:47:49;8.48;;;7.57;;
39750;SDS011;37579;51.074;17.004;2022-08-19T00:50:16;9.05;;;7.93;;
39750;SDS011;37579;51.074;17.004;2022-08-19T00:52:47;9.40;;;8.30;;
39750;SDS011;37579;51.074;17.004;2022-08-19T00:55:22;10.77;;;7.07;;
39750;SDS011;37579;51.074;17.004;2022-08-19T00:58:01;10.07;;;8.15;;
39750;SDS011;37579;51.074;17.004;2022-08-19T01:00:32;9.75;;;7.18;;
39750;SDS011;37579;51.074;17.004;2022-08-19T01:03:02;9.55;;;7.97;;
39750;SDS011;37579;51.074;17.004;2022-08-19T01:05:29;8.63;;;7.72;;
39750;SDS011;37579;51.074;17.004;2022-08-19T01:07:55;11.63;;;8.05;;
39750;SDS011;37579;51.074;17.004;2022-08-19T01:10:25;8.82;;;7.90;;
39750;SDS011;37579;51.074;17.004;2022-08-19T01:12:54;10.85;;;8.60;;
39750;SDS011;37579;51.074;17.004;2022-08-19T01:15:23;10.38;;;7.70;;
39750;SDS011;37579;51.074;17.004;2022-08-19T01:17:53;10.75;;;7.40;;
39750;SDS011;37579;51.074;17.004;2022-08-19T01:20:22;9.68;;;8.27;;
39750;SDS011;37579;51.074;17.004;2022-08-19T01:22:53;8.55;;;7.68;;
39750;SDS011;37579;51.074;17.004;2022-08-19T01:25:26;13.02;;;8.30;;
39750;SDS011;37579;51.074;17.004;2022-08-19T01:28:13;9.70;;;7.68;;
39750;SDS011;37579;51.074;17.004;2022-08-19T01:30:44;10.70;;;8.07;;
39750;SDS011;37579;51.074;17.004;2022-08-19T01:33:11;8.52;;;7.65;;
39750;SDS011;37579;51.074;17.004;2022-08-19T01:35:37;8.13;;;7.32;;
39750;SDS011;37579;51.074;17.004;2022-08-19T01:38:04;9.65;;;8.30;;
39750;SDS011;37579;51.074;17.004;2022-08-19T01:40:32;8.18;;;7.38;;
39750;SDS011;37579;51.074;17.004;2022-08-19T01:42:59;7.85;;;7.05;;
39750;SDS011;37579;51.074;17.004;2022-08-19T01:45:26;9.23;;;8.32;;
39750;SDS011;37579;51.074;17.004;2022-08-19T01:47:53;8.05;;;7.25;;
39750;SDS011;37579;51.074;17.004;2022-08-19T01:50:19;8.38;;;7.35;;
39750;SDS011;37579;51.074;17.004;2022-08-19T01:52:46;9.10;;;7.68;;
39750;SDS011;37579;51.074;17.004;2022-08-19T01:55:14;10.05;;;7.85;;
39750;SDS011;37579;51.074;17.004;2022-08-19T01:57:44;8.90;;;8.00;;
39750;SDS011;37579;51.074;17.004;2022-08-19T02:00:15;8.45;;;7.55;;
39750;SDS011;37579;51.074;17.004;2022-08-19T02:02:43;8.60;;;7.70;;
39750;SDS011;37579;51.074;17.004;2022-08-19T02:05:10;11.20;;;7.80;;
39750;SDS011;37579;51.074;17.004;2022-08-19T02:07:38;9.20;;;7.55;;
39750;SDS011;37579;51.074;17.004;2022-08-19T02:10:06;11.20;;;8.10;;
39750;SDS011;37579;51.074;17.004;2022-08-19T02:12:34;10.23;;;7.93;;
39750;SDS011;37579;51.074;17.004;2022-08-19T02:15:00;9.02;;;7.57;;
39750;SDS011;37579;51.074;17.004;2022-08-19T02:17:27;8.15;;;7.35;;
39750;SDS011;37579;51.074;17.004;2022-08-19T02:19:54;8.68;;;7.25;;
39750;SDS011;37579;51.074;17.004;2022-08-19T02:22:21;13.85;;;7.65;;
39750;SDS011;37579;51.074;17.004;2022-08-19T02:24:47;8.25;;;7.28;;
39750;SDS011;37579;51.074;17.004;2022-08-19T02:27:14;11.13;;;7.78;;
39750;SDS011;37579;51.074;17.004;2022-08-19T02:29:40;9.35;;;7.85;;
39750;SDS011;37579;51.074;17.004;2022-08-19T02:32:06;10.38;;;7.95;;
39750;SDS011;37579;51.074;17.004;2022-08-19T02:34:32;9.10;;;7.57;;
39750;SDS011;37579;51.074;17.004;2022-08-19T02:36:58;8.63;;;7.20;;
39750;SDS011;37579;51.074;17.004;2022-08-19T02:39:24;8.73;;;7.60;;
39750;SDS011;37579;51.074;17.004;2022-08-19T02:41:51;9.13;;;8.05;;
39750;SDS011;37579;51.074;17.004;2022-08-19T02:44:17;9.80;;;8.43;;
39750;SDS011;37579;51.074;17.004;2022-08-19T02:46:44;9.02;;;7.90;;
39750;SDS011;37579;51.074;17.004;2022-08-19T02:49:11;8.98;;;8.07;;
39750;SDS011;37579;51.074;17.004;2022-08-19T02:51:42;9.43;;;7.63;;
39750;SDS011;37579;51.074;17.004;2022-08-19T02:54:09;10.23;;;7.85;;
39750;SDS011;37579;51.074;17.004;2022-08-19T02:56:38;9.25;;;8.35;;
39750;SDS011;37579;51.074;17.004;2022-08-19T02:59:05;9.88;;;7.50;;
39750;SDS011;37579;51.074;17.004;2022-08-19T03:01:33;9.63;;;7.80;;
39750;SDS011;37579;51.074;17.004;2022-08-19T03:04:01;9.95;;;8.15;;
39750;SDS011;37579;51.074;17.004;2022-08-19T03:06:29;10.13;;;7.88;;
39750;SDS011;37579;51.074;17.004;2022-08-19T03:08:55;10.02;;;8.43;;
39750;SDS011;37579;51.074;17.004;2022-08-19T03:11:22;9.63;;;8.32;;
39750;SDS011;37579;51.074;17.004;2022-08-19T03:13:50;8.90;;;8.00;;
39750;SDS011;37579;51.074;17.004;2022-08-19T03:16:17;11.77;;;8.57;;
39750;SDS011;37579;51.074;17.004;2022-08-19T03:18:44;11.52;;;8.70;;
39750;SDS011;37579;51.074;17.004;2022-08-19T03:21:14;10.07;;;9.13;;
39750;SDS011;37579;51.074;17.004;2022-08-19T03:23:41;10.10;;;9.02;;
39750;SDS011;37579;51.074;17.004;2022-08-19T03:26:07;11.45;;;9.43;;
39750;SDS011;37579;51.074;17.004;2022-08-19T03:28:33;10.90;;;8.05;;
39750;SDS011;37579;51.074;17.004;2022-08-19T03:31:00;9.07;;;8.07;;
39750;SDS011;37579;51.074;17.004;2022-08-19T03:33:28;12.23;;;9.32;;
39750;SDS011;37579;51.074;17.004;2022-08-19T03:36:10;9.95;;;8.55;;
39750;SDS011;37579;51.074;17.004;2022-08-19T03:38:39;9.70;;;7.95;;
39750;SDS011;37579;51.074;17.004;2022-08-19T03:41:08;10.00;;;8.90;;
39750;SDS011;37579;51.074;17.004;2022-08-19T03:43:37;10.45;;;8.63;;
39750;SDS011;37579;51.074;17.004;2022-08-19T03:46:05;10.60;;;9.10;;
39750;SDS011;37579;51.074;17.004;2022-08-19T03:48:33;9.90;;;8.82;;
39750;SDS011;37579;51.074;17.004;2022-08-19T03:51:01;12.77;;;8.38;;
39750;SDS011;37579;51.074;17.004;2022-08-19T03:53:28;10.65;;;9.02;;
39750;SDS011;37579;51.074;17.004;2022-08-19T03:55:55;11.02;;;9.80;;
39750;SDS011;37579;51.074;17.004;2022-08-19T03:58:21;9.98;;;8.30;;
39750;SDS011;37579;51.074;17.004;2022-08-19T04:00:47;10.60;;;9.50;;
39750;SDS011;37579;51.074;17.004;2022-08-19T04:03:13;11.32;;;9.95;;
39750;SDS011;37579;51.074;17.004;2022-08-19T04:05:40;10.88;;;9.20;;
39750;SDS011;37579;51.074;17.004;2022-08-19T04:08:05;11.77;;;9.27;;
39750;SDS011;37579;51.074;17.004;2022-08-19T04:10:40;13.02;;;10.30;;
39750;SDS011;37579;51.074;17.004;2022-08-19T04:13:07;11.77;;;9.80;;
39750;SDS011;37579;51.074;17.004;2022-08-19T04:15:38;11.40;;;9.50;;
39750;SDS011;37579;51.074;17.004;2022-08-19T04:18:08;10.80;;;9.70;;
39750;SDS011;37579;51.074;17.004;2022-08-19T04:20:38;9.82;;;8.90;;
39750;SDS011;37579;51.074;17.004;2022-08-19T04:23:13;11.52;;;9.43;;
39750;SDS011;37579;51.074;17.004;2022-08-19T04:25:40;10.70;;;9.60;;
39750;SDS011;37579;51.074;17.004;2022-08-19T04:28:08;12.10;;;10.45;;
39750;SDS011;37579;51.074;17.004;2022-08-19T04:30:40;12.35;;;10.57;;
39750;SDS011;37579;51.074;17.004;2022-08-19T04:33:08;11.00;;;9.60;;
39750;SDS011;37579;51.074;17.004;2022-08-19T04:35:36;13.27;;;9.63;;
39750;SDS011;37579;51.074;17.004;2022-08-19T04:38:06;12.10;;;9.88;;
39750;SDS011;37579;51.074;17.004;2022-08-19T04:40:33;11.25;;;10.05;;
39750;SDS011;37579;51.074;17.004;2022-08-19T04:43:18;12.02;;;10.45;;
39750;SDS011;37579;51.074;17.004;2022-08-19T04:45:45;11.18;;;9.32;;
39750;SDS011;37579;51.074;17.004;2022-08-19T04:48:11;13.07;;;9.93;;
39750;SDS011;37579;51.074;17.004;2022-08-19T04:50:41;13.45;;;10.25;;
39750;SDS011;37579;51.074;17.004;2022-08-19T04:53:08;10.40;;;9.18;;
39750;SDS011;37579;51.074;17.004;2022-08-19T04:55:34;12.82;;;10.02;;
39750;SDS011;37579;51.074;17.004;2022-08-19T04:58:02;13.57;;;11.07;;
39750;SDS011;37579;51.074;17.004;2022-08-19T05:00:28;14.77;;;10.63;;
39750;SDS011;37579;51.074;17.004;2022-08-19T05:02:54;14.23;;;10.40;;
39750;SDS011;37579;51.074;17.004;2022-08-19T05:05:20;14.40;;;10.98;;
39750;SDS011;37579;51.074;17.004;2022-08-19T05:07:46;13.32;;;10.93;;
39750;SDS011;37579;51.074;17.004;2022-08-19T05:10:12;12.40;;;10.95;;
39750;SDS011;37579;51.074;17.004;2022-08-19T05:12:38;12.13;;;10.70;;
39750;SDS011;37579;51.074;17.004;2022-08-19T05:15:04;14.15;;;10.75;;
39750;SDS011;37579;51.074;17.004;2022-08-19T05:17:33;15.15;;;11.07;;
39750;SDS011;37579;51.074;17.004;2022-08-19T05:19:59;13.77;;;11.55;;
39750;SDS011;37579;51.074;17.004;2022-08-19T05:22:44;12.77;;;10.73;;
39750;SDS011;37579;51.074;17.004;2022-08-19T05:25:12;14.90;;;11.10;;
39750;SDS011;37579;51.074;17.004;2022-08-19T05:27:41;14.73;;;11.10;;
39750;SDS011;37579;51.074;17.004;2022-08-19T05:30:07;15.40;;;11.73;;
39750;SDS011;37579;51.074;17.004;2022-08-19T05:32:34;13.50;;;10.73;;
39750;SDS011;37579;51.074;17.004;2022-08-19T05:35:00;13.60;;;10.73;;
39750;SDS011;37579;51.074;17.004;2022-08-19T05:37:26;15.95;;;11.50;;
39750;SDS011;37579;51.074;17.004;2022-08-19T05:39:52;13.15;;;11.70;;
39750;SDS011;37579;51.074;17.004;2022-08-19T05:42:19;13.13;;;11.77;;
39750;SDS011;37579;51.074;17.004;2022-08-19T05:44:47;15.18;;;11.15;;
39750;SDS011;37579;51.074;17.004;2022-08-19T05:47:14;15.23;;;11.95;;
39750;SDS011;37579;51.074;17.004;2022-08-19T05:49:41;12.93;;;11.35;;
39750;SDS011;37579;51.074;17.004;2022-08-19T05:52:09;15.45;;;11.13;;
39750;SDS011;37579;51.074;17.004;2022-08-19T05:54:37;12.85;;;11.20;;
39750;SDS011;37579;51.074;17.004;2022-08-19T05:57:05;14.05;;;10.70;;
39750;SDS011;37579;51.074;17.004;2022-08-19T05:59:32;14.23;;;10.93;;
39750;SDS011;37579;51.074;17.004;2022-08-19T06:02:00;13.93;;;11.40;;
39750;SDS011;37579;51.074;17.004;2022-08-19T06:04:27;17.50;;;11.93;;
39750;SDS011;37579;51.074;17.004;2022-08-19T06:06:53;15.27;;;11.00;;
39750;SDS011;37579;51.074;17.004;2022-08-19T06:09:20;16.67;;;11.40;;
39750;SDS011;37579;51.074;17.004;2022-08-19T06:11:50;15.30;;;11.70;;
39750;SDS011;37579;51.074;17.004;2022-08-19T06:14:23;15.63;;;10.77;;
39750;SDS011;37579;51.074;17.004;2022-08-19T06:16:50;14.18;;;10.98;;
39750;SDS011;37579;51.074;17.004;2022-08-19T06:19:18;13.25;;;10.35;;
39750;SDS011;37579;51.074;17.004;2022-08-19T06:21:46;14.55;;;10.98;;
39750;SDS011;37579;51.074;17.004;2022-08-19T06:24:14;13.93;;;10.52;;
39750;SDS011;37579;51.074;17.004;2022-08-19T06:26:44;13.02;;;10.45;;
39750;SDS011;37579;51.074;17.004;2022-08-19T06:29:12;12.45;;;10.15;;
39750;SDS011;37579;51.074;17.004;2022-08-19T06:31:43;13.05;;;11.18;;
39750;SDS011;37579;51.074;17.004;2022-08-19T06:34:10;15.05;;;10.50;;
39750;SDS011;37579;51.074;17.004;2022-08-19T06:36:38;12.45;;;10.35;;
39750;SDS011;37579;51.074;17.004;2022-08-19T06:39:10;14.05;;;10.07;;
39750;SDS011;37579;51.074;17.004;2022-08-19T06:41:39;15.40;;;9.73;;
39750;SDS011;37579;51.074;17.004;2022-08-19T06:44:15;15.55;;;10.23;;
39750;SDS011;37579;51.074;17.004;2022-08-19T06:46:42;14.10;;;9.82;;
39750;SDS011;37579;51.074;17.004;2022-08-19T06:49:08;11.77;;;9.98;;
39750;SDS011;37579;51.074;17.004;2022-08-19T06:51:38;17.23;;;10.27;;
39750;SDS011;37579;51.074;17.004;2022-08-19T06:54:05;11.93;;;9.25;;
39750;SDS011;37579;51.074;17.004;2022-08-19T06:56:31;11.45;;;9.15;;
39750;SDS011;37579;51.074;17.004;2022-08-19T06:59:02;11.30;;;9.15;;
39750;SDS011;37579;51.074;17.004;2022-08-19T07:01:36;13.52;;;10.15;;
39750;SDS011;37579;51.074;17.004;2022-08-19T07:04:04;10.98;;;9.38;;
39750;SDS011;37579;51.074;17.004;2022-08-19T07:06:31;11.18;;;9.35;;
39750;SDS011;37579;51.074;17.004;2022-08-19T07:08:57;11.35;;;8.85;;
39750;SDS011;37579;51.074;17.004;2022-08-19T07:11:23;12.20;;;9.85;;
39750;SDS011;37579;51.074;17.004;2022-08-19T07:13:49;10.23;;;9.05;;
39750;SDS011;37579;51.074;17.004;2022-08-19T07:16:17;13.15;;;9.05;;
39750;SDS011;37579;51.074;17.004;2022-08-19T07:18:45;12.18;;;9.68;;
39750;SDS011;37579;51.074;17.004;2022-08-19T07:21:15;15.48;;;9.23;;
39750;SDS011;37579;51.074;17.004;2022-08-19T07:23:48;11.60;;;9.20;;
39750;SDS011;37579;51.074;17.004;2022-08-19T07:26:27;11.98;;;9.63;;
39750;SDS011;37579;51.074;17.004;2022-08-19T07:28:56;12.02;;;9.27;;
39750;SDS011;37579;51.074;17.004;2022-08-19T07:31:25;11.38;;;8.45;;
39750;SDS011;37579;51.074;17.004;2022-08-19T07:33:53;14.30;;;9.15;;
39750;SDS011;37579;51.074;17.004;2022-08-19T07:36:24;10.38;;;8.52;;
39750;SDS011;37579;51.074;17.004;2022-08-19T07:38:57;11.45;;;8.98;;
39750;SDS011;37579;51.074;17.004;2022-08-19T07:41:25;8.98;;;8.13;;
39750;SDS011;37579;51.074;17.004;2022-08-19T07:43:53;9.55;;;8.57;;
39750;SDS011;37579;51.074;17.004;2022-08-19T07:46:20;13.38;;;8.70;;
39750;SDS011;37579;51.074;17.004;2022-08-19T07:48:46;10.65;;;8.57;;
39750;SDS011;37579;51.074;17.004;2022-08-19T07:51:15;15.70;;;8.73;;
39750;SDS011;37579;51.074;17.004;2022-08-19T07:53:42;11.73;;;9.05;;
39750;SDS011;37579;51.074;17.004;2022-08-19T07:56:10;12.50;;;9.30;;
39750;SDS011;37579;51.074;17.004;2022-08-19T07:58:38;12.50;;;9.18;;
39750;SDS011;37579;51.074;17.004;2022-08-19T08:01:07;27.13;;;9.98;;
39750;SDS011;37579;51.074;17.004;2022-08-19T08:03:35;11.52;;;9.20;;
39750;SDS011;37579;51.074;17.004;2022-08-19T08:06:21;10.93;;;9.73;;
39750;SDS011;37579;51.074;17.004;2022-08-19T08:09:06;14.88;;;8.95;;
39750;SDS011;37579;51.074;17.004;2022-08-19T08:11:50;11.80;;;8.57;;
39750;SDS011;37579;51.074;17.004;2022-08-19T08:14:31;14.20;;;9.52;;
39750;SDS011;37579;51.074;17.004;2022-08-19T08:16:57;12.18;;;9.07;;
39750;SDS011;37579;51.074;17.004;2022-08-19T08:19:24;10.77;;;8.85;;
39750;SDS011;37579;51.074;17.004;2022-08-19T08:21:51;11.40;;;7.00;;
39750;SDS011;37579;51.074;17.004;2022-08-19T08:24:21;9.48;;;7.20;;
39750;SDS011;37579;51.074;17.004;2022-08-19T08:26:48;12.25;;;7.25;;
39750;SDS011;37579;51.074;17.004;2022-08-19T08:29:14;11.57;;;7.82;;
39750;SDS011;37579;51.074;17.004;2022-08-19T08:31:40;11.07;;;8.07;;
39750;SDS011;37579;51.074;17.004;2022-08-19T08:34:08;13.85;;;7.60;;
39750;SDS011;37579;51.074;17.004;2022-08-19T08:36:38;8.32;;;7.15;;
39750;SDS011;37579;51.074;17.004;2022-08-19T08:39:10;10.45;;;7.10;;
39750;SDS011;37579;51.074;17.004;2022-08-19T08:41:55;10.40;;;7.50;;
39750;SDS011;37579;51.074;17.004;2022-08-19T08:44:39;11.63;;;7.80;;
39750;SDS011;37579;51.074;17.004;2022-08-19T08:47:15;12.98;;;7.15;;
39750;SDS011;37579;51.074;17.004;2022-08-19T08:49:52;8.63;;;7.43;;
39750;SDS011;37579;51.074;17.004;2022-08-19T08:54:50;7.88;;;7.03;;
39750;SDS011;37579;51.074;17.004;2022-08-19T08:57:21;7.72;;;6.93;;
39750;SDS011;37579;51.074;17.004;2022-08-19T08:59:53;10.75;;;7.25;;
39750;SDS011;37579;51.074;17.004;2022-08-19T09:02:22;8.02;;;7.20;;
39750;SDS011;37579;51.074;17.004;2022-08-19T09:04:48;9.07;;;7.20;;
39750;SDS011;37579;51.074;17.004;2022-08-19T09:09:49;8.88;;;6.90;;
39750;SDS011;37579;51.074;17.004;2022-08-19T09:12:22;9.52;;;6.88;;
39750;SDS011;37579;51.074;17.004;2022-08-19T09:14:53;10.38;;;7.07;;
39750;SDS011;37579;51.074;17.004;2022-08-19T09:17:24;11.10;;;6.57;;
39750;SDS011;37579;51.074;17.004;2022-08-19T09:22:30;8.80;;;6.55;;
39750;SDS011;37579;51.074;17.004;2022-08-19T09:24:56;7.43;;;6.70;;
39750;SDS011;37579;51.074;17.004;2022-08-19T09:27:22;9.20;;;6.45;;
39750;SDS011;37579;51.074;17.004;2022-08-19T09:29:50;9.43;;;6.75;;
39750;SDS011;37579;51.074;17.004;2022-08-19T09:32:16;11.68;;;6.47;;
39750;SDS011;37579;51.074;17.004;2022-08-19T09:34:43;6.85;;;6.10;;
39750;SDS011;37579;51.074;17.004;2022-08-19T09:37:09;8.38;;;6.30;;
39750;SDS011;37579;51.074;17.004;2022-08-19T09:39:35;7.72;;;6.90;;
39750;SDS011;37579;51.074;17.004;2022-08-19T09:42:02;10.93;;;6.65;;
39750;SDS011;37579;51.074;17.004;2022-08-19T09:44:28;8.40;;;6.43;;
39750;SDS011;37579;51.074;17.004;2022-08-19T09:46:54;8.25;;;7.18;;
39750;SDS011;37579;51.074;17.004;2022-08-19T09:49:21;8.27;;;6.30;;
39750;SDS011;37579;51.074;17.004;2022-08-19T09:51:50;8.15;;;6.22;;
39750;SDS011;37579;51.074;17.004;2022-08-19T09:54:18;8.27;;;6.03;;
39750;SDS011;37579;51.074;17.004;2022-08-19T09:56:44;9.65;;;6.65;;
39750;SDS011;37579;51.074;17.004;2022-08-19T09:59:10;9.90;;;6.47;;
39750;SDS011;37579;51.074;17.004;2022-08-19T10:01:37;7.80;;;6.85;;
39750;SDS011;37579;51.074;17.004;2022-08-19T10:04:03;12.10;;;6.75;;
39750;SDS011;37579;51.074;17.004;2022-08-19T10:06:35;12.85;;;6.70;;
39750;SDS011;37579;51.074;17.004;2022-08-19T10:09:03;8.73;;;6.75;;
39750;SDS011;37579;51.074;17.004;2022-08-19T10:11:32;8.02;;;6.18;;
39750;SDS011;37579;51.074;17.004;2022-08-19T10:13:59;8.43;;;6.60;;
39750;SDS011;37579;51.074;17.004;2022-08-19T10:16:25;8.57;;;5.78;;
39750;SDS011;37579;51.074;17.004;2022-08-19T10:18:51;8.68;;;5.95;;
39750;SDS011;37579;51.074;17.004;2022-08-19T10:21:23;8.05;;;6.20;;
39750;SDS011;37579;51.074;17.004;2022-08-19T10:23:53;8.32;;;5.93;;
39750;SDS011;37579;51.074;17.004;2022-08-19T10:26:24;8.57;;;6.00;;
39750;SDS011;37579;51.074;17.004;2022-08-19T10:28:52;7.72;;;5.90;;
39750;SDS011;37579;51.074;17.004;2022-08-19T10:31:23;11.00;;;6.20;;
39750;SDS011;37579;51.074;17.004;2022-08-19T10:33:52;8.32;;;6.38;;
39750;SDS011;37579;51.074;17.004;2022-08-19T10:36:23;9.85;;;6.07;;
39750;SDS011;37579;51.074;17.004;2022-08-19T10:38:53;9.52;;;5.75;;
39750;SDS011;37579;51.074;17.004;2022-08-19T10:41:22;8.65;;;5.82;;
39750;SDS011;37579;51.074;17.004;2022-08-19T10:43:51;6.88;;;5.50;;
39750;SDS011;37579;51.074;17.004;2022-08-19T10:46:19;7.93;;;6.13;;
39750;SDS011;37579;51.074;17.004;2022-08-19T10:48:48;8.32;;;5.85;;
39750;SDS011;37579;51.074;17.004;2022-08-19T10:51:15;7.50;;;5.72;;
39750;SDS011;37579;51.074;17.004;2022-08-19T10:54:00;7.43;;;5.22;;
39750;SDS011;37579;51.074;17.004;2022-08-19T10:56:26;10.07;;;6.05;;
39750;SDS011;37579;51.074;17.004;2022-08-19T10:59:11;8.30;;;5.95;;
39750;SDS011;37579;51.074;17.004;2022-08-19T11:01:39;8.52;;;5.07;;
39750;SDS011;37579;51.074;17.004;2022-08-19T11:04:05;7.85;;;5.25;;
39750;SDS011;37579;51.074;17.004;2022-08-19T11:06:35;10.20;;;5.68;;
39750;SDS011;37579;51.074;17.004;2022-08-19T11:09:02;7.80;;;5.88;;
39750;SDS011;37579;51.074;17.004;2022-08-19T11:11:28;8.73;;;5.47;;
39750;SDS011;37579;51.074;17.004;2022-08-19T11:13:54;11.23;;;5.68;;
39750;SDS011;37579;51.074;17.004;2022-08-19T11:16:21;9.35;;;5.78;;
39750;SDS011;37579;51.074;17.004;2022-08-19T11:18:49;7.68;;;5.30;;
39750;SDS011;37579;51.074;17.004;2022-08-19T11:21:28;8.20;;;5.75;;
39750;SDS011;37579;51.074;17.004;2022-08-19T11:24:00;6.60;;;5.00;;
39750;SDS011;37579;51.074;17.004;2022-08-19T11:26:28;8.10;;;5.55;;
39750;SDS011;37579;51.074;17.004;2022-08-19T11:28:55;9.88;;;4.57;;
39750;SDS011;37579;51.074;17.004;2022-08-19T11:31:23;7.78;;;4.30;;
39750;SDS011;37579;51.074;17.004;2022-08-19T11:33:50;6.80;;;4.15;;
39750;SDS011;37579;51.074;17.004;2022-08-19T11:36:18;7.70;;;4.07;;
39750;SDS011;37579;51.074;17.004;2022-08-19T11:38:45;5.50;;;3.45;;
39750;SDS011;37579;51.074;17.004;2022-08-19T11:41:13;6.72;;;4.30;;
39750;SDS011;37579;51.074;17.004;2022-08-19T11:43:40;6.38;;;3.45;;
39750;SDS011;37579;51.074;17.004;2022-08-19T11:46:07;5.22;;;3.45;;
39750;SDS011;37579;51.074;17.004;2022-08-19T11:48:35;6.47;;;3.58;;
39750;SDS011;37579;51.074;17.004;2022-08-19T11:51:06;6.85;;;3.47;;
39750;SDS011;37579;51.074;17.004;2022-08-19T11:53:39;7.50;;;3.50;;
39750;SDS011;37579;51.074;17.004;2022-08-19T11:56:05;5.53;;;3.28;;
39750;SDS011;37579;51.074;17.004;2022-08-19T11:58:32;9.98;;;3.95;;
39750;SDS011;37579;51.074;17.004;2022-08-19T12:00:59;7.60;;;3.85;;
39750;SDS011;37579;51.074;17.004;2022-08-19T12:03:25;4.03;;;3.10;;
39750;SDS011;37579;51.074;17.004;2022-08-19T12:05:51;7.63;;;3.70;;
39750;SDS011;37579;51.074;17.004;2022-08-19T12:08:16;8.50;;;3.67;;
39750;SDS011;37579;51.074;17.004;2022-08-19T12:10:43;10.48;;;3.92;;
39750;SDS011;37579;51.074;17.004;2022-08-19T12:13:10;6.03;;;3.53;;
39750;SDS011;37579;51.074;17.004;2022-08-19T12:15:39;4.90;;;3.70;;
39750;SDS011;37579;51.074;17.004;2022-08-19T12:18:06;8.73;;;4.22;;
39750;SDS011;37579;51.074;17.004;2022-08-19T12:20:34;6.72;;;3.88;;
39750;SDS011;37579;51.074;17.004;2022-08-19T12:23:01;5.30;;;3.42;;
39750;SDS011;37579;51.074;17.004;2022-08-19T12:25:28;4.93;;;3.55;;
39750;SDS011;37579;51.074;17.004;2022-08-19T12:27:54;6.18;;;4.15;;
39750;SDS011;37579;51.074;17.004;2022-08-19T12:30:20;5.88;;;3.70;;
39750;SDS011;37579;51.074;17.004;2022-08-19T12:32:45;7.30;;;3.97;;
39750;SDS011;37579;51.074;17.004;2022-08-19T12:35:11;7.32;;;3.30;;
39750;SDS011;37579;51.074;17.004;2022-08-19T12:37:38;3.75;;;3.40;;
39750;SDS011;37579;51.074;17.004;2022-08-19T12:40:04;5.60;;;3.35;;
39750;SDS011;37579;51.074;17.004;2022-08-19T12:42:30;5.63;;;3.47;;
39750;SDS011;37579;51.074;17.004;2022-08-19T12:44:56;5.22;;;3.35;;
39750;SDS011;37579;51.074;17.004;2022-08-19T12:47:22;5.30;;;3.03;;
39750;SDS011;37579;51.074;17.004;2022-08-19T12:49:48;5.05;;;3.33;;
39750;SDS011;37579;51.074;17.004;2022-08-19T12:52:14;6.47;;;3.47;;
39750;SDS011;37579;51.074;17.004;2022-08-19T12:54:41;3.95;;;3.45;;
39750;SDS011;37579;51.074;17.004;2022-08-19T12:57:08;6.28;;;3.20;;
39750;SDS011;37579;51.074;17.004;2022-08-19T12:59:35;5.55;;;3.80;;
39750;SDS011;37579;51.074;17.004;2022-08-19T13:02:06;6.10;;;3.38;;
39750;SDS011;37579;51.074;17.004;2022-08-19T13:04:32;7.32;;;3.70;;
39750;SDS011;37579;51.074;17.004;2022-08-19T13:07:05;7.20;;;3.30;;
39750;SDS011;37579;51.074;17.004;2022-08-19T13:09:32;6.25;;;2.88;;
39750;SDS011;37579;51.074;17.004;2022-08-19T13:11:58;7.00;;;3.42;;
39750;SDS011;37579;51.074;17.004;2022-08-19T13:14:27;6.65;;;3.40;;
39750;SDS011;37579;51.074;17.004;2022-08-19T13:16:53;5.60;;;3.72;;
39750;SDS011;37579;51.074;17.004;2022-08-19T13:19:19;7.72;;;3.38;;
39750;SDS011;37579;51.074;17.004;2022-08-19T13:21:49;7.85;;;3.40;;
39750;SDS011;37579;51.074;17.004;2022-08-19T13:24:15;5.05;;;2.95;;
39750;SDS011;37579;51.074;17.004;2022-08-19T13:26:41;3.78;;;3.05;;
39750;SDS011;37579;51.074;17.004;2022-08-19T13:29:07;8.23;;;3.40;;
39750;SDS011;37579;51.074;17.004;2022-08-19T13:31:52;4.70;;;3.25;;
39750;SDS011;37579;51.074;17.004;2022-08-19T13:34:36;5.93;;;3.72;;
39750;SDS011;37579;51.074;17.004;2022-08-19T13:37:02;7.03;;;3.80;;
39750;SDS011;37579;51.074;17.004;2022-08-19T13:39:32;5.10;;;3.47;;
39750;SDS011;37579;51.074;17.004;2022-08-19T13:41:58;6.90;;;3.25;;
39750;SDS011;37579;51.074;17.004;2022-08-19T13:44:25;5.63;;;3.40;;
39750;SDS011;37579;51.074;17.004;2022-08-19T13:46:54;5.88;;;3.70;;
39750;SDS011;37579;51.074;17.004;2022-08-19T13:49:27;4.05;;;3.63;;
39750;SDS011;37579;51.074;17.004;2022-08-19T13:51:56;6.30;;;2.85;;
39750;SDS011;37579;51.074;17.004;2022-08-19T13:54:22;7.70;;;3.70;;
39750;SDS011;37579;51.074;17.004;2022-08-19T13:56:47;6.10;;;3.65;;
39750;SDS011;37579;51.074;17.004;2022-08-19T13:59:13;8.68;;;3.60;;
39750;SDS011;37579;51.074;17.004;2022-08-19T14:01:40;6.10;;;3.65;;
39750;SDS011;37579;51.074;17.004;2022-08-19T14:04:06;4.82;;;3.65;;
39750;SDS011;37579;51.074;17.004;2022-08-19T14:06:33;5.38;;;3.83;;
39750;SDS011;37579;51.074;17.004;2022-08-19T14:08:58;4.80;;;3.40;;
39750;SDS011;37579;51.074;17.004;2022-08-19T14:11:24;5.25;;;3.38;;
39750;SDS011;37579;51.074;17.004;2022-08-19T14:13:51;6.65;;;3.58;;
39750;SDS011;37579;51.074;17.004;2022-08-19T14:16:17;5.10;;;3.38;;
39750;SDS011;37579;51.074;17.004;2022-08-19T14:18:43;6.78;;;3.38;;
39750;SDS011;37579;51.074;17.004;2022-08-19T14:21:17;6.47;;;3.85;;
39750;SDS011;37579;51.074;17.004;2022-08-19T14:23:45;8.50;;;3.75;;
39750;SDS011;37579;51.074;17.004;2022-08-19T14:26:12;6.90;;;3.60;;
39750;SDS011;37579;51.074;17.004;2022-08-19T14:28:42;4.00;;;3.13;;
39750;SDS011;37579;51.074;17.004;2022-08-19T14:31:09;5.20;;;3.67;;
39750;SDS011;37579;51.074;17.004;2022-08-19T14:33:36;5.72;;;3.40;;
39750;SDS011;37579;51.074;17.004;2022-08-19T14:36:02;6.28;;;3.63;;
39750;SDS011;37579;51.074;17.004;2022-08-19T14:38:28;6.25;;;3.78;;
39750;SDS011;37579;51.074;17.004;2022-08-19T14:41:05;7.13;;;3.78;;